sensor_id;sensor_type;location;lat;lon;timestamp;P1;durP1;ratioP1;P2;durP2;ratioP2
5801;SDS011;2927;49.366;8.530;2023-06-24T00:01:14;8.30;;;5.20;;
5801;SDS011;2927;49.366;8.530;2023-06-24T00:03:40;5.87;;;4.30;;
5801;SDS011;2927;49.366;8.530;2023-06-24T00:06:08;7.57;;;5.33;;
5801;SDS011;2927;49.366;8.530;2023-06-24T00:08:35;6.50;;;5.30;;
5801;SDS011;2927;49.366;8.530;2023-06-24T00:11:01;8.20;;;4.80;;
5801;SDS011;2927;49.366;8.530;2023-06-24T00:13:27;7.00;;;4.73;;
5801;SDS011;2927;49.366;8.530;2023-06-24T00:15:56;6.00;;;4.57;;
5801;SDS011;2927;49.366;8.530;2023-06-24T00:18:23;6.60;;;4.70;;
5801;SDS011;2927;49.366;8.530;2023-06-24T00:20:49;7.90;;;5.47;;
5801;SDS011;2927;49.366;8.530;2023-06-24T00:23:16;8.20;;;4.63;;
5801;SDS011;2927;49.366;8.530;2023-06-24T00:25:45;7.23;;;4.50;;
5801;SDS011;2927;49.366;8.530;2023-06-24T00:28:11;5.03;;;4.53;;
5801;SDS011;2927;49.366;8.530;2023-06-24T00:30:36;6.20;;;4.73;;
5801;SDS011;2927;49.366;8.530;2023-06-24T00:33:02;6.20;;;4.80;;
5801;SDS011;2927;49.366;8.530;2023-06-24T00:35:27;7.03;;;5.30;;
5801;SDS011;2927;49.366;8.530;2023-06-24T00:37:53;6.20;;;4.50;;
5801;SDS011;2927;49.366;8.530;2023-06-24T00:40:24;5.40;;;4.10;;
5801;SDS011;2927;49.366;8.530;2023-06-24T00:42:49;8.90;;;5.30;;
5801;SDS011;2927;49.366;8.530;2023-06-24T00:45:15;6.00;;;5.03;;
5801;SDS011;2927;49.366;8.530;2023-06-24T00:47:42;6.10;;;5.00;;
5801;SDS011;2927;49.366;8.530;2023-06-24T00:50:08;6.40;;;4.47;;
5801;SDS011;2927;49.366;8.530;2023-06-24T00:52:37;9.77;;;4.53;;
5801;SDS011;2927;49.366;8.530;2023-06-24T00:55:07;9.73;;;5.00;;
5801;SDS011;2927;49.366;8.530;2023-06-24T00:57:33;5.27;;;4.77;;
5801;SDS011;2927;49.366;8.530;2023-06-24T00:59:59;5.17;;;4.63;;
5801;SDS011;2927;49.366;8.530;2023-06-24T01:02:25;8.70;;;4.63;;
5801;SDS011;2927;49.366;8.530;2023-06-24T01:04:52;4.83;;;4.33;;
5801;SDS011;2927;49.366;8.530;2023-06-24T01:07:18;8.30;;;4.70;;
5801;SDS011;2927;49.366;8.530;2023-06-24T01:09:44;8.50;;;5.57;;
5801;SDS011;2927;49.366;8.530;2023-06-24T01:12:10;7.23;;;4.70;;
5801;SDS011;2927;49.366;8.530;2023-06-24T01:14:36;7.73;;;5.83;;
5801;SDS011;2927;49.366;8.530;2023-06-24T01:17:19;5.67;;;5.07;;
5801;SDS011;2927;49.366;8.530;2023-06-24T01:23:16;6.77;;;4.57;;
5801;SDS011;2927;49.366;8.530;2023-06-24T01:32:09;9.00;;;4.90;;
5801;SDS011;2927;49.366;8.530;2023-06-24T01:34:56;10.97;;;4.63;;
5801;SDS011;2927;49.366;8.530;2023-06-24T01:37:44;7.37;;;5.40;;
5801;SDS011;2927;49.366;8.530;2023-06-24T01:43:01;11.77;;;5.90;;
5801;SDS011;2927;49.366;8.530;2023-06-24T01:45:31;8.83;;;5.53;;
5801;SDS011;2927;49.366;8.530;2023-06-24T01:48:10;7.50;;;5.10;;
5801;SDS011;2927;49.366;8.530;2023-06-24T01:50:39;6.53;;;5.40;;
5801;SDS011;2927;49.366;8.530;2023-06-24T01:53:08;9.77;;;6.37;;
5801;SDS011;2927;49.366;8.530;2023-06-24T01:55:35;8.13;;;5.50;;
5801;SDS011;2927;49.366;8.530;2023-06-24T01:58:03;7.53;;;5.63;;
5801;SDS011;2927;49.366;8.530;2023-06-24T02:00:32;6.40;;;5.80;;
5801;SDS011;2927;49.366;8.530;2023-06-24T02:03:00;7.43;;;5.20;;
5801;SDS011;2927;49.366;8.530;2023-06-24T02:05:27;9.93;;;5.63;;
5801;SDS011;2927;49.366;8.530;2023-06-24T02:07:54;8.67;;;5.50;;
5801;SDS011;2927;49.366;8.530;2023-06-24T02:10:21;7.07;;;5.63;;
5801;SDS011;2927;49.366;8.530;2023-06-24T02:12:49;9.30;;;5.30;;
5801;SDS011;2927;49.366;8.530;2023-06-24T02:15:17;8.03;;;5.50;;
5801;SDS011;2927;49.366;8.530;2023-06-24T02:17:44;9.33;;;5.60;;
5801;SDS011;2927;49.366;8.530;2023-06-24T02:20:12;8.20;;;5.33;;
5801;SDS011;2927;49.366;8.530;2023-06-24T02:22:41;8.70;;;6.40;;
5801;SDS011;2927;49.366;8.530;2023-06-24T02:25:07;8.17;;;6.10;;
5801;SDS011;2927;49.366;8.530;2023-06-24T02:27:34;8.57;;;5.80;;
5801;SDS011;2927;49.366;8.530;2023-06-24T02:30:00;9.27;;;5.50;;
5801;SDS011;2927;49.366;8.530;2023-06-24T02:32:28;10.30;;;5.93;;
5801;SDS011;2927;49.366;8.530;2023-06-24T02:34:53;11.40;;;5.90;;
5801;SDS011;2927;49.366;8.530;2023-06-24T02:37:19;9.17;;;6.90;;
5801;SDS011;2927;49.366;8.530;2023-06-24T02:39:44;9.07;;;6.00;;
5801;SDS011;2927;49.366;8.530;2023-06-24T02:42:10;5.77;;;5.20;;
5801;SDS011;2927;49.366;8.530;2023-06-24T02:44:36;10.03;;;6.37;;
5801;SDS011;2927;49.366;8.530;2023-06-24T02:47:06;6.80;;;6.10;;
5801;SDS011;2927;49.366;8.530;2023-06-24T02:49:35;7.90;;;5.43;;
5801;SDS011;2927;49.366;8.530;2023-06-24T02:52:02;9.20;;;6.47;;
5801;SDS011;2927;49.366;8.530;2023-06-24T02:54:28;7.73;;;5.87;;
5801;SDS011;2927;49.366;8.530;2023-06-24T02:56:55;9.50;;;6.07;;
5801;SDS011;2927;49.366;8.530;2023-06-24T02:59:22;7.90;;;5.80;;
5801;SDS011;2927;49.366;8.530;2023-06-24T03:01:49;6.53;;;5.47;;
5801;SDS011;2927;49.366;8.530;2023-06-24T03:04:15;12.00;;;6.27;;
5801;SDS011;2927;49.366;8.530;2023-06-24T03:06:43;10.40;;;6.20;;
5801;SDS011;2927;49.366;8.530;2023-06-24T03:09:09;8.60;;;6.10;;
5801;SDS011;2927;49.366;8.530;2023-06-24T03:11:44;6.70;;;5.33;;
5801;SDS011;2927;49.366;8.530;2023-06-24T03:14:10;9.63;;;6.17;;
5801;SDS011;2927;49.366;8.530;2023-06-24T03:16:36;10.63;;;5.40;;
5801;SDS011;2927;49.366;8.530;2023-06-24T03:19:05;7.83;;;5.67;;
5801;SDS011;2927;49.366;8.530;2023-06-24T03:21:30;16.60;;;5.80;;
5801;SDS011;2927;49.366;8.530;2023-06-24T03:23:57;8.80;;;6.33;;
5801;SDS011;2927;49.366;8.530;2023-06-24T03:26:24;11.07;;;6.93;;
5801;SDS011;2927;49.366;8.530;2023-06-24T03:28:56;9.80;;;6.10;;
5801;SDS011;2927;49.366;8.530;2023-06-24T03:31:21;9.53;;;6.40;;
5801;SDS011;2927;49.366;8.530;2023-06-24T03:33:49;9.27;;;6.70;;
5801;SDS011;2927;49.366;8.530;2023-06-24T03:36:14;12.40;;;6.93;;
5801;SDS011;2927;49.366;8.530;2023-06-24T03:38:40;11.60;;;8.17;;
5801;SDS011;2927;49.366;8.530;2023-06-24T03:41:06;9.33;;;7.03;;
5801;SDS011;2927;49.366;8.530;2023-06-24T03:43:31;10.77;;;7.50;;
5801;SDS011;2927;49.366;8.530;2023-06-24T03:45:57;9.40;;;7.43;;
5801;SDS011;2927;49.366;8.530;2023-06-24T03:48:23;14.53;;;7.40;;
5801;SDS011;2927;49.366;8.530;2023-06-24T03:50:48;10.43;;;7.97;;
5801;SDS011;2927;49.366;8.530;2023-06-24T03:53:13;10.10;;;7.50;;
5801;SDS011;2927;49.366;8.530;2023-06-24T03:55:39;14.20;;;7.80;;
5801;SDS011;2927;49.366;8.530;2023-06-24T03:58:05;9.40;;;7.67;;
5801;SDS011;2927;49.366;8.530;2023-06-24T04:00:31;12.57;;;8.50;;
5801;SDS011;2927;49.366;8.530;2023-06-24T04:02:56;16.10;;;6.80;;
5801;SDS011;2927;49.366;8.530;2023-06-24T04:05:26;11.67;;;7.63;;
5801;SDS011;2927;49.366;8.530;2023-06-24T04:07:51;16.30;;;7.10;;
5801;SDS011;2927;49.366;8.530;2023-06-24T04:10:18;9.73;;;7.10;;
5801;SDS011;2927;49.366;8.530;2023-06-24T04:12:44;7.07;;;6.00;;
5801;SDS011;2927;49.366;8.530;2023-06-24T04:15:10;12.67;;;7.20;;
5801;SDS011;2927;49.366;8.530;2023-06-24T04:17:36;8.13;;;6.77;;
5801;SDS011;2927;49.366;8.530;2023-06-24T04:20:03;12.13;;;6.90;;
5801;SDS011;2927;49.366;8.530;2023-06-24T04:22:33;9.53;;;6.83;;
5801;SDS011;2927;49.366;8.530;2023-06-24T04:24:59;10.10;;;6.47;;
5801;SDS011;2927;49.366;8.530;2023-06-24T04:27:25;10.30;;;6.70;;
5801;SDS011;2927;49.366;8.530;2023-06-24T04:29:51;8.07;;;6.93;;
5801;SDS011;2927;49.366;8.530;2023-06-24T04:32:16;10.47;;;7.87;;
5801;SDS011;2927;49.366;8.530;2023-06-24T04:34:42;8.40;;;6.70;;
5801;SDS011;2927;49.366;8.530;2023-06-24T04:37:07;10.83;;;6.20;;
5801;SDS011;2927;49.366;8.530;2023-06-24T04:39:33;8.70;;;6.50;;
5801;SDS011;2927;49.366;8.530;2023-06-24T04:41:58;9.67;;;6.57;;
5801;SDS011;2927;49.366;8.530;2023-06-24T04:44:24;8.40;;;6.67;;
5801;SDS011;2927;49.366;8.530;2023-06-24T04:46:50;8.40;;;6.30;;
5801;SDS011;2927;49.366;8.530;2023-06-24T04:49:17;8.80;;;6.40;;
5801;SDS011;2927;49.366;8.530;2023-06-24T04:51:43;7.37;;;5.40;;
5801;SDS011;2927;49.366;8.530;2023-06-24T04:54:09;7.90;;;6.83;;
5801;SDS011;2927;49.366;8.530;2023-06-24T04:56:34;10.30;;;6.50;;
5801;SDS011;2927;49.366;8.530;2023-06-24T04:59:00;9.43;;;7.03;;
5801;SDS011;2927;49.366;8.530;2023-06-24T05:01:26;11.47;;;7.50;;
5801;SDS011;2927;49.366;8.530;2023-06-24T05:03:52;7.90;;;5.73;;
5801;SDS011;2927;49.366;8.530;2023-06-24T05:06:17;7.50;;;6.20;;
5801;SDS011;2927;49.366;8.530;2023-06-24T05:08:43;7.17;;;6.20;;
5801;SDS011;2927;49.366;8.530;2023-06-24T05:11:08;9.47;;;6.30;;
5801;SDS011;2927;49.366;8.530;2023-06-24T05:13:34;8.43;;;6.77;;
5801;SDS011;2927;49.366;8.530;2023-06-24T05:15:59;8.93;;;6.17;;
5801;SDS011;2927;49.366;8.530;2023-06-24T05:18:25;6.90;;;5.40;;
5801;SDS011;2927;49.366;8.530;2023-06-24T05:20:50;8.00;;;7.20;;
5801;SDS011;2927;49.366;8.530;2023-06-24T05:23:16;8.30;;;5.90;;
5801;SDS011;2927;49.366;8.530;2023-06-24T05:25:41;12.57;;;5.70;;
5801;SDS011;2927;49.366;8.530;2023-06-24T05:28:07;6.13;;;5.40;;
5801;SDS011;2927;49.366;8.530;2023-06-24T05:30:33;6.93;;;5.50;;
5801;SDS011;2927;49.366;8.530;2023-06-24T05:32:58;8.43;;;5.63;;
5801;SDS011;2927;49.366;8.530;2023-06-24T05:35:24;9.30;;;6.40;;
5801;SDS011;2927;49.366;8.530;2023-06-24T05:37:49;6.50;;;5.47;;
5801;SDS011;2927;49.366;8.530;2023-06-24T05:40:15;7.70;;;5.40;;
5801;SDS011;2927;49.366;8.530;2023-06-24T05:42:40;4.93;;;4.53;;
5801;SDS011;2927;49.366;8.530;2023-06-24T05:45:06;6.63;;;5.00;;
5801;SDS011;2927;49.366;8.530;2023-06-24T05:47:32;6.70;;;5.77;;
5801;SDS011;2927;49.366;8.530;2023-06-24T05:49:59;9.23;;;5.23;;
5801;SDS011;2927;49.366;8.530;2023-06-24T05:52:24;6.93;;;5.30;;
5801;SDS011;2927;49.366;8.530;2023-06-24T05:54:50;7.77;;;5.50;;
5801;SDS011;2927;49.366;8.530;2023-06-24T05:57:16;19.23;;;5.67;;
5801;SDS011;2927;49.366;8.530;2023-06-24T05:59:41;8.43;;;5.20;;
5801;SDS011;2927;49.366;8.530;2023-06-24T06:02:07;9.20;;;5.73;;
5801;SDS011;2927;49.366;8.530;2023-06-24T06:04:32;7.80;;;6.17;;
5801;SDS011;2927;49.366;8.530;2023-06-24T06:06:58;14.43;;;5.70;;
5801;SDS011;2927;49.366;8.530;2023-06-24T06:09:23;10.30;;;5.00;;
5801;SDS011;2927;49.366;8.530;2023-06-24T06:11:49;4.20;;;3.90;;
5801;SDS011;2927;49.366;8.530;2023-06-24T06:14:14;7.37;;;4.70;;
5801;SDS011;2927;49.366;8.530;2023-06-24T06:16:40;4.03;;;3.53;;
5801;SDS011;2927;49.366;8.530;2023-06-24T06:19:06;4.82;;;4.45;;
5801;SDS011;2927;49.366;8.530;2023-06-24T06:21:31;6.10;;;4.10;;
5801;SDS011;2927;49.366;8.530;2023-06-24T06:23:57;4.60;;;4.20;;
5801;SDS011;2927;49.366;8.530;2023-06-24T06:26:22;5.50;;;3.95;;
5801;SDS011;2927;49.366;8.530;2023-06-24T06:28:48;3.97;;;3.67;;
5801;SDS011;2927;49.366;8.530;2023-06-24T06:31:14;3.55;;;3.35;;
5801;SDS011;2927;49.366;8.530;2023-06-24T06:33:40;4.40;;;4.03;;
5801;SDS011;2927;49.366;8.530;2023-06-24T06:36:06;4.32;;;4.03;;
5801;SDS011;2927;49.366;8.530;2023-06-24T06:38:32;4.07;;;3.47;;
5801;SDS011;2927;49.366;8.530;2023-06-24T06:40:58;6.30;;;4.32;;
5801;SDS011;2927;49.366;8.530;2023-06-24T06:43:24;4.95;;;4.22;;
5801;SDS011;2927;49.366;8.530;2023-06-24T06:45:50;3.60;;;3.40;;
5801;SDS011;2927;49.366;8.530;2023-06-24T06:48:15;3.85;;;3.55;;
5801;SDS011;2927;49.366;8.530;2023-06-24T06:50:41;4.38;;;3.63;;
5801;SDS011;2927;49.366;8.530;2023-06-24T06:53:06;4.28;;;3.70;;
5801;SDS011;2927;49.366;8.530;2023-06-24T06:55:32;3.65;;;3.40;;
5801;SDS011;2927;49.366;8.530;2023-06-24T06:57:57;4.10;;;3.90;;
5801;SDS011;2927;49.366;8.530;2023-06-24T07:00:23;4.03;;;3.83;;
5801;SDS011;2927;49.366;8.530;2023-06-24T07:02:48;3.97;;;3.70;;
5801;SDS011;2927;49.366;8.530;2023-06-24T07:05:14;3.33;;;3.17;;
5801;SDS011;2927;49.366;8.530;2023-06-24T07:07:39;4.03;;;3.83;;
5801;SDS011;2927;49.366;8.530;2023-06-24T07:10:05;3.97;;;3.60;;
5801;SDS011;2927;49.366;8.530;2023-06-24T07:12:31;3.65;;;3.45;;
5801;SDS011;2927;49.366;8.530;2023-06-24T07:14:57;3.50;;;3.20;;
5801;SDS011;2927;49.366;8.530;2023-06-24T07:17:22;4.05;;;3.83;;
5801;SDS011;2927;49.366;8.530;2023-06-24T07:19:48;3.75;;;3.50;;
5801;SDS011;2927;49.366;8.530;2023-06-24T07:22:16;3.67;;;3.38;;
5801;SDS011;2927;49.366;8.530;2023-06-24T07:24:41;8.18;;;3.88;;
5801;SDS011;2927;49.366;8.530;2023-06-24T07:27:07;4.22;;;4.03;;
5801;SDS011;2927;49.366;8.530;2023-06-24T07:29:33;3.75;;;3.55;;
5801;SDS011;2927;49.366;8.530;2023-06-24T07:31:58;3.60;;;3.40;;
5801;SDS011;2927;49.366;8.530;2023-06-24T07:34:24;4.05;;;3.85;;
5801;SDS011;2927;49.366;8.530;2023-06-24T07:36:50;3.30;;;3.20;;
5801;SDS011;2927;49.366;8.530;2023-06-24T07:39:15;3.88;;;3.67;;
5801;SDS011;2927;49.366;8.530;2023-06-24T07:41:42;4.45;;;3.42;;
5801;SDS011;2927;49.366;8.530;2023-06-24T07:44:07;3.10;;;2.95;;
5801;SDS011;2927;49.366;8.530;2023-06-24T07:46:33;3.15;;;3.05;;
5801;SDS011;2927;49.366;8.530;2023-06-24T07:48:59;4.07;;;3.78;;
5801;SDS011;2927;49.366;8.530;2023-06-24T07:51:25;3.50;;;3.30;;
5801;SDS011;2927;49.366;8.530;2023-06-24T07:53:50;3.60;;;3.40;;
5801;SDS011;2927;49.366;8.530;2023-06-24T07:56:16;3.70;;;3.50;;
5801;SDS011;2927;49.366;8.530;2023-06-24T07:58:41;3.67;;;3.47;;
5801;SDS011;2927;49.366;8.530;2023-06-24T08:01:07;3.70;;;3.50;;
5801;SDS011;2927;49.366;8.530;2023-06-24T08:03:33;4.50;;;4.15;;
5801;SDS011;2927;49.366;8.530;2023-06-24T08:05:58;3.65;;;3.35;;
5801;SDS011;2927;49.366;8.530;2023-06-24T08:08:24;3.83;;;3.67;;
5801;SDS011;2927;49.366;8.530;2023-06-24T08:10:50;4.10;;;3.90;;
5801;SDS011;2927;49.366;8.530;2023-06-24T08:13:15;3.78;;;3.58;;
5801;SDS011;2927;49.366;8.530;2023-06-24T08:15:41;3.83;;;3.67;;
5801;SDS011;2927;49.366;8.530;2023-06-24T08:18:06;3.60;;;3.50;;
5801;SDS011;2927;49.366;8.530;2023-06-24T08:20:32;3.75;;;3.55;;
5801;SDS011;2927;49.366;8.530;2023-06-24T08:22:57;4.28;;;4.03;;
5801;SDS011;2927;49.366;8.530;2023-06-24T08:25:23;3.80;;;3.60;;
5801;SDS011;2927;49.366;8.530;2023-06-24T08:27:49;4.13;;;4.00;;
5801;SDS011;2927;49.366;8.530;2023-06-24T08:30:14;3.75;;;3.55;;
5801;SDS011;2927;49.366;8.530;2023-06-24T08:32:40;4.18;;;3.97;;
5801;SDS011;2927;49.366;8.530;2023-06-24T08:35:06;4.05;;;3.95;;
5801;SDS011;2927;49.366;8.530;2023-06-24T08:37:33;5.63;;;3.65;;
5801;SDS011;2927;49.366;8.530;2023-06-24T08:39:59;3.15;;;3.05;;
5801;SDS011;2927;49.366;8.530;2023-06-24T08:42:25;3.70;;;3.50;;
5801;SDS011;2927;49.366;8.530;2023-06-24T08:44:50;3.63;;;3.42;;
5801;SDS011;2927;49.366;8.530;2023-06-24T08:47:16;3.70;;;3.53;;
5801;SDS011;2927;49.366;8.530;2023-06-24T08:49:52;4.18;;;3.88;;
5801;SDS011;2927;49.366;8.530;2023-06-24T08:52:25;4.43;;;4.13;;
5801;SDS011;2927;49.366;8.530;2023-06-24T08:54:55;3.38;;;3.28;;
5801;SDS011;2927;49.366;8.530;2023-06-24T08:57:23;3.97;;;3.83;;
5801;SDS011;2927;49.366;8.530;2023-06-24T08:59:49;3.67;;;3.58;;
5801;SDS011;2927;49.366;8.530;2023-06-24T09:02:14;4.03;;;3.83;;
5801;SDS011;2927;49.366;8.530;2023-06-24T09:04:40;3.60;;;3.50;;
5801;SDS011;2927;49.366;8.530;2023-06-24T09:07:06;3.10;;;3.00;;
5801;SDS011;2927;49.366;8.530;2023-06-24T09:09:32;3.95;;;3.75;;
5801;SDS011;2927;49.366;8.530;2023-06-24T09:11:59;4.05;;;3.22;;
5801;SDS011;2927;49.366;8.530;2023-06-24T09:14:26;3.80;;;3.60;;
5801;SDS011;2927;49.366;8.530;2023-06-24T09:16:54;3.75;;;3.45;;
5801;SDS011;2927;49.366;8.530;2023-06-24T09:19:24;3.33;;;3.05;;
5801;SDS011;2927;49.366;8.530;2023-06-24T09:21:54;3.55;;;3.33;;
5801;SDS011;2927;49.366;8.530;2023-06-24T09:24:29;3.35;;;3.25;;
5801;SDS011;2927;49.366;8.530;2023-06-24T09:26:56;3.22;;;3.13;;
5801;SDS011;2927;49.366;8.530;2023-06-24T09:29:30;3.33;;;3.22;;
5801;SDS011;2927;49.366;8.530;2023-06-24T09:31:57;3.20;;;3.00;;
5801;SDS011;2927;49.366;8.530;2023-06-24T09:34:25;3.97;;;3.78;;
5801;SDS011;2927;49.366;8.530;2023-06-24T09:36:52;3.13;;;3.03;;
5801;SDS011;2927;49.366;8.530;2023-06-24T09:39:19;3.47;;;3.38;;
5801;SDS011;2927;49.366;8.530;2023-06-24T09:41:54;3.10;;;2.95;;
5801;SDS011;2927;49.366;8.530;2023-06-24T09:44:21;3.20;;;3.10;;
5801;SDS011;2927;49.366;8.530;2023-06-24T09:46:46;4.10;;;3.83;;
5801;SDS011;2927;49.366;8.530;2023-06-24T09:49:13;3.78;;;3.67;;
5801;SDS011;2927;49.366;8.530;2023-06-24T09:51:40;3.58;;;3.40;;
5801;SDS011;2927;49.366;8.530;2023-06-24T09:54:10;3.03;;;2.90;;
5801;SDS011;2927;49.366;8.530;2023-06-24T09:56:37;3.38;;;3.17;;
5801;SDS011;2927;49.366;8.530;2023-06-24T09:59:07;3.60;;;3.30;;
5801;SDS011;2927;49.366;8.530;2023-06-24T10:01:39;4.20;;;3.80;;
5801;SDS011;2927;49.366;8.530;2023-06-24T10:04:06;3.63;;;3.42;;
5801;SDS011;2927;49.366;8.530;2023-06-24T10:06:35;4.18;;;3.88;;
5801;SDS011;2927;49.366;8.530;2023-06-24T10:09:01;6.93;;;3.33;;
5801;SDS011;2927;49.366;8.530;2023-06-24T10:11:27;5.75;;;4.25;;
5801;SDS011;2927;49.366;8.530;2023-06-24T10:13:52;3.45;;;3.35;;
5801;SDS011;2927;49.366;8.530;2023-06-24T10:16:19;3.13;;;2.83;;
5801;SDS011;2927;49.366;8.530;2023-06-24T10:18:45;3.78;;;3.55;;
5801;SDS011;2927;49.366;8.530;2023-06-24T10:21:12;3.90;;;3.60;;
5801;SDS011;2927;49.366;8.530;2023-06-24T10:23:40;3.65;;;3.40;;
5801;SDS011;2927;49.366;8.530;2023-06-24T10:26:10;3.20;;;3.10;;
5801;SDS011;2927;49.366;8.530;2023-06-24T10:34:22;3.55;;;3.45;;
5801;SDS011;2927;49.366;8.530;2023-06-24T10:37:01;3.22;;;3.08;;
5801;SDS011;2927;49.366;8.530;2023-06-24T10:44:48;3.03;;;2.92;;
5801;SDS011;2927;49.366;8.530;2023-06-24T10:47:15;3.92;;;3.70;;
5801;SDS011;2927;49.366;8.530;2023-06-24T10:49:41;3.08;;;2.88;;
5801;SDS011;2927;49.366;8.530;2023-06-24T10:52:10;3.30;;;3.10;;
5801;SDS011;2927;49.366;8.530;2023-06-24T10:54:36;3.65;;;3.40;;
5801;SDS011;2927;49.366;8.530;2023-06-24T10:57:03;3.60;;;3.13;;
5801;SDS011;2927;49.366;8.530;2023-06-24T10:59:42;4.50;;;2.97;;
5801;SDS011;2927;49.366;8.530;2023-06-24T11:02:14;5.07;;;3.33;;
5801;SDS011;2927;49.366;8.530;2023-06-24T11:05:08;3.40;;;3.20;;
5801;SDS011;2927;49.366;8.530;2023-06-24T11:07:34;3.90;;;3.05;;
5801;SDS011;2927;49.366;8.530;2023-06-24T11:10:03;7.13;;;3.05;;
5801;SDS011;2927;49.366;8.530;2023-06-24T11:12:35;3.90;;;3.30;;
5801;SDS011;2927;49.366;8.530;2023-06-24T11:15:03;4.32;;;3.83;;
5801;SDS011;2927;49.366;8.530;2023-06-24T11:17:33;6.88;;;3.72;;
5801;SDS011;2927;49.366;8.530;2023-06-24T11:20:00;4.50;;;4.07;;
5801;SDS011;2927;49.366;8.530;2023-06-24T11:22:26;6.88;;;3.70;;
5801;SDS011;2927;49.366;8.530;2023-06-24T11:24:52;4.97;;;3.20;;
5801;SDS011;2927;49.366;8.530;2023-06-24T11:27:26;3.78;;;3.50;;
5801;SDS011;2927;49.366;8.530;2023-06-24T11:29:53;3.70;;;3.50;;
5801;SDS011;2927;49.366;8.530;2023-06-24T11:32:19;3.53;;;3.28;;
5801;SDS011;2927;49.366;8.530;2023-06-24T11:34:45;3.50;;;3.30;;
5801;SDS011;2927;49.366;8.530;2023-06-24T11:37:12;3.47;;;3.22;;
5801;SDS011;2927;49.366;8.530;2023-06-24T11:39:39;3.72;;;3.33;;
5801;SDS011;2927;49.366;8.530;2023-06-24T11:42:06;3.70;;;3.40;;
5801;SDS011;2927;49.366;8.530;2023-06-24T11:44:34;4.65;;;3.92;;
5801;SDS011;2927;49.366;8.530;2023-06-24T11:47:04;3.67;;;3.38;;
5801;SDS011;2927;49.366;8.530;2023-06-24T11:49:52;6.25;;;3.42;;
5801;SDS011;2927;49.366;8.530;2023-06-24T11:55:10;3.70;;;3.40;;
5801;SDS011;2927;49.366;8.530;2023-06-24T11:57:47;4.30;;;3.35;;
5801;SDS011;2927;49.366;8.530;2023-06-24T12:00:29;3.25;;;2.95;;
5801;SDS011;2927;49.366;8.530;2023-06-24T12:03:09;3.47;;;3.17;;
5801;SDS011;2927;49.366;8.530;2023-06-24T12:05:35;3.25;;;3.05;;
5801;SDS011;2927;49.366;8.530;2023-06-24T12:08:03;3.78;;;3.38;;
5801;SDS011;2927;49.366;8.530;2023-06-24T12:10:31;4.10;;;3.75;;
5801;SDS011;2927;49.366;8.530;2023-06-24T12:12:59;5.30;;;4.45;;
5801;SDS011;2927;49.366;8.530;2023-06-24T12:15:25;4.20;;;3.80;;
5801;SDS011;2927;49.366;8.530;2023-06-24T12:17:51;3.75;;;3.50;;
5801;SDS011;2927;49.366;8.530;2023-06-24T12:20:17;3.80;;;3.50;;
5801;SDS011;2927;49.366;8.530;2023-06-24T12:22:44;3.20;;;3.03;;
5801;SDS011;2927;49.366;8.530;2023-06-24T12:25:10;3.35;;;3.05;;
5801;SDS011;2927;49.366;8.530;2023-06-24T12:27:37;3.65;;;3.35;;
5801;SDS011;2927;49.366;8.530;2023-06-24T12:30:03;4.47;;;3.75;;
5801;SDS011;2927;49.366;8.530;2023-06-24T12:32:29;4.07;;;3.78;;
5801;SDS011;2927;49.366;8.530;2023-06-24T12:34:55;4.00;;;3.55;;
5801;SDS011;2927;49.366;8.530;2023-06-24T12:37:21;4.82;;;3.28;;
5801;SDS011;2927;49.366;8.530;2023-06-24T12:39:47;3.47;;;3.28;;
5801;SDS011;2927;49.366;8.530;2023-06-24T12:42:12;4.20;;;3.75;;
5801;SDS011;2927;49.366;8.530;2023-06-24T12:44:38;4.30;;;3.90;;
5801;SDS011;2927;49.366;8.530;2023-06-24T12:47:03;4.13;;;3.83;;
5801;SDS011;2927;49.366;8.530;2023-06-24T12:49:29;3.97;;;3.67;;
5801;SDS011;2927;49.366;8.530;2023-06-24T12:51:55;3.70;;;3.40;;
5801;SDS011;2927;49.366;8.530;2023-06-24T12:54:20;3.25;;;3.13;;
5801;SDS011;2927;49.366;8.530;2023-06-24T12:56:46;3.35;;;3.13;;
5801;SDS011;2927;49.366;8.530;2023-06-24T12:59:11;3.53;;;3.22;;
5801;SDS011;2927;49.366;8.530;2023-06-24T13:01:37;3.08;;;2.88;;
5801;SDS011;2927;49.366;8.530;2023-06-24T13:04:04;5.13;;;3.83;;
5801;SDS011;2927;49.366;8.530;2023-06-24T13:06:30;3.70;;;3.40;;
5801;SDS011;2927;49.366;8.530;2023-06-24T13:08:55;3.95;;;3.65;;
5801;SDS011;2927;49.366;8.530;2023-06-24T13:11:22;4.25;;;3.80;;
5801;SDS011;2927;49.366;8.530;2023-06-24T13:13:48;3.90;;;3.58;;
5801;SDS011;2927;49.366;8.530;2023-06-24T13:16:13;3.47;;;3.17;;
5801;SDS011;2927;49.366;8.530;2023-06-24T13:18:39;4.38;;;3.67;;
5801;SDS011;2927;49.366;8.530;2023-06-24T13:21:04;3.67;;;3.38;;
5801;SDS011;2927;49.366;8.530;2023-06-24T13:23:30;4.05;;;3.75;;
5801;SDS011;2927;49.366;8.530;2023-06-24T13:25:56;7.65;;;3.67;;
5801;SDS011;2927;49.366;8.530;2023-06-24T13:28:22;4.55;;;4.15;;
5801;SDS011;2927;49.366;8.530;2023-06-24T13:30:47;4.00;;;3.80;;
5801;SDS011;2927;49.366;8.530;2023-06-24T13:33:13;3.75;;;3.55;;
5801;SDS011;2927;49.366;8.530;2023-06-24T13:35:38;4.35;;;4.05;;
5801;SDS011;2927;49.366;8.530;2023-06-24T13:38:05;4.30;;;3.28;;
5801;SDS011;2927;49.366;8.530;2023-06-24T13:40:33;3.90;;;3.30;;
5801;SDS011;2927;49.366;8.530;2023-06-24T13:42:59;3.25;;;3.05;;
5801;SDS011;2927;49.366;8.530;2023-06-24T13:45:25;4.05;;;3.65;;
5801;SDS011;2927;49.366;8.530;2023-06-24T13:47:50;3.33;;;3.13;;
5801;SDS011;2927;49.366;8.530;2023-06-24T13:50:16;3.50;;;3.20;;
5801;SDS011;2927;49.366;8.530;2023-06-24T13:52:41;3.80;;;3.50;;
5801;SDS011;2927;49.366;8.530;2023-06-24T13:55:07;5.43;;;3.42;;
5801;SDS011;2927;49.366;8.530;2023-06-24T13:57:33;4.60;;;4.20;;
5801;SDS011;2927;49.366;8.530;2023-06-24T13:59:58;3.90;;;3.53;;
5801;SDS011;2927;49.366;8.530;2023-06-24T14:02:24;3.53;;;3.22;;
5801;SDS011;2927;49.366;8.530;2023-06-24T14:04:49;4.53;;;4.13;;
5801;SDS011;2927;49.366;8.530;2023-06-24T14:07:15;3.53;;;3.22;;
5801;SDS011;2927;49.366;8.530;2023-06-24T14:09:40;8.05;;;3.33;;
5801;SDS011;2927;49.366;8.530;2023-06-24T14:12:06;3.47;;;3.28;;
5801;SDS011;2927;49.366;8.530;2023-06-24T14:14:33;4.00;;;3.70;;
5801;SDS011;2927;49.366;8.530;2023-06-24T14:17:00;4.22;;;3.92;;
5801;SDS011;2927;49.366;8.530;2023-06-24T14:19:26;4.35;;;4.05;;
5801;SDS011;2927;49.366;8.530;2023-06-24T14:21:51;4.40;;;3.30;;
5801;SDS011;2927;49.366;8.530;2023-06-24T14:24:17;4.10;;;3.75;;
5801;SDS011;2927;49.366;8.530;2023-06-24T14:26:43;4.35;;;4.05;;
5801;SDS011;2927;49.366;8.530;2023-06-24T14:29:09;4.00;;;3.72;;
5801;SDS011;2927;49.366;8.530;2023-06-24T14:31:34;4.55;;;4.15;;
5801;SDS011;2927;49.366;8.530;2023-06-24T14:34:00;4.13;;;3.83;;
5801;SDS011;2927;49.366;8.530;2023-06-24T14:36:25;4.78;;;3.67;;
5801;SDS011;2927;49.366;8.530;2023-06-24T14:38:51;3.88;;;3.50;;
5801;SDS011;2927;49.366;8.530;2023-06-24T14:41:16;4.10;;;3.70;;
5801;SDS011;2927;49.366;8.530;2023-06-24T14:43:42;4.15;;;3.85;;
5801;SDS011;2927;49.366;8.530;2023-06-24T14:46:07;3.35;;;3.15;;
5801;SDS011;2927;49.366;8.530;2023-06-24T14:48:33;4.30;;;3.10;;
5801;SDS011;2927;49.366;8.530;2023-06-24T14:50:58;4.50;;;4.18;;
5801;SDS011;2927;49.366;8.530;2023-06-24T14:53:24;4.82;;;3.70;;
5801;SDS011;2927;49.366;8.530;2023-06-24T14:55:49;4.65;;;3.80;;
5801;SDS011;2927;49.366;8.530;2023-06-24T14:58:15;3.70;;;3.40;;
5801;SDS011;2927;49.366;8.530;2023-06-24T15:00:40;4.68;;;4.38;;
5801;SDS011;2927;49.366;8.530;2023-06-24T15:03:06;4.13;;;3.83;;
5801;SDS011;2927;49.366;8.530;2023-06-24T15:05:32;3.88;;;3.58;;
5801;SDS011;2927;49.366;8.530;2023-06-24T15:07:59;4.47;;;4.07;;
5801;SDS011;2927;49.366;8.530;2023-06-24T15:10:24;4.13;;;3.80;;
5801;SDS011;2927;49.366;8.530;2023-06-24T15:12:50;4.07;;;3.67;;
5801;SDS011;2927;49.366;8.530;2023-06-24T15:15:15;5.55;;;4.43;;
5801;SDS011;2927;49.366;8.530;2023-06-24T15:17:41;4.07;;;3.78;;
5801;SDS011;2927;49.366;8.530;2023-06-24T15:20:10;4.32;;;3.72;;
5801;SDS011;2927;49.366;8.530;2023-06-24T15:22:36;9.27;;;4.60;;
5801;SDS011;2927;49.366;8.530;2023-06-24T15:25:01;4.63;;;3.85;;
5801;SDS011;2927;49.366;8.530;2023-06-24T15:27:27;3.80;;;3.50;;
5801;SDS011;2927;49.366;8.530;2023-06-24T15:29:52;4.25;;;3.95;;
5801;SDS011;2927;49.366;8.530;2023-06-24T15:32:18;4.15;;;3.50;;
5801;SDS011;2927;49.366;8.530;2023-06-24T15:34:43;4.07;;;3.67;;
5801;SDS011;2927;49.366;8.530;2023-06-24T15:37:09;3.83;;;3.45;;
5801;SDS011;2927;49.366;8.530;2023-06-24T15:39:35;3.60;;;3.30;;